Johannesburg, Michigan
Current Conditions -  °F | °C
As of 6:53 AM on Sunday 21 Dec 2014 (Local Time) from KGLR Reporting Station
Overcast Overcast  
Wind Chill: 16°   Ceiling: 2900
Heat Index: 22°   Visibility: 9mi
Dew Point: 20°   Wind: 5mph
Humidity: 92%   Direction: 140°SE
Pressure: 30.19"   Gusts: NA
Location:  44.99°N, 84.46°W
Report Text: KGLR 211153Z AUTO 14004KT 9SM FEW009 OVC029 M06/M07 A3019 RMK AO2 SLP246 I6000 T10561067 11050 21078 56004
Loading
Personal Weather Stations






























Interactive Weather Map New forecast layout! Learn more

10-Day Weather Forecast

Advertisements
Track Severe Weather on mobile